sensor_id;sensor_type;location;lat;lon;timestamp;pressure;altitude;pressure_sealevel;temperature;humidity
36234;BME280;43467;50.890;5.982;2023-03-03T00:02:06;100817.13;;;5.59;63.21
36234;BME280;43467;50.890;5.982;2023-03-03T00:04:32;100819.00;;;5.53;63.68
36234;BME280;43467;50.890;5.982;2023-03-03T00:06:57;100815.50;;;5.54;63.67
36234;BME280;43467;50.890;5.982;2023-03-03T00:09:22;100812.81;;;5.55;63.24
36234;BME280;43467;50.890;5.982;2023-03-03T00:11:53;100817.38;;;5.46;64.36
36234;BME280;43467;50.890;5.982;2023-03-03T00:14:31;100821.88;;;5.36;64.45
36234;BME280;43467;50.890;5.982;2023-03-03T00:17:00;100833.28;;;5.35;64.61
36234;BME280;43467;50.890;5.982;2023-03-03T00:19:25;100822.88;;;5.28;63.99
36234;BME280;43467;50.890;5.982;2023-03-03T00:21:51;100817.63;;;5.29;64.84
36234;BME280;43467;50.890;5.982;2023-03-03T00:24:24;100821.00;;;5.37;63.95
36234;BME280;43467;50.890;5.982;2023-03-03T00:27:00;100830.59;;;5.40;63.84
36234;BME280;43467;50.890;5.982;2023-03-03T00:29:37;100825.25;;;5.46;63.83
36234;BME280;43467;50.890;5.982;2023-03-03T00:34:41;100814.94;;;5.32;64.03
36234;BME280;43467;50.890;5.982;2023-03-03T00:37:21;100822.69;;;5.41;64.24
36234;BME280;43467;50.890;5.982;2023-03-03T00:39:48;100823.66;;;5.36;63.72
36234;BME280;43467;50.890;5.982;2023-03-03T00:42:15;100827.09;;;5.39;63.86
36234;BME280;43467;50.890;5.982;2023-03-03T00:44:59;100834.97;;;5.39;64.25
36234;BME280;43467;50.890;5.982;2023-03-03T00:47:38;100826.38;;;5.30;64.19
36234;BME280;43467;50.890;5.982;2023-03-03T00:52:38;100827.03;;;5.42;63.70
36234;BME280;43467;50.890;5.982;2023-03-03T00:55:04;100827.88;;;5.44;63.86
36234;BME280;43467;50.890;5.982;2023-03-03T00:57:30;100829.75;;;5.36;64.19
36234;BME280;43467;50.890;5.982;2023-03-03T00:59:55;100840.25;;;5.38;64.42
36234;BME280;43467;50.890;5.982;2023-03-03T01:02:21;100844.59;;;5.39;64.47
36234;BME280;43467;50.890;5.982;2023-03-03T01:04:52;100848.16;;;5.36;64.18
36234;BME280;43467;50.890;5.982;2023-03-03T01:07:20;100841.25;;;5.28;63.72
36234;BME280;43467;50.890;5.982;2023-03-03T01:09:46;100849.25;;;5.19;64.08
36234;BME280;43467;50.890;5.982;2023-03-03T01:12:12;100843.13;;;5.20;64.48
36234;BME280;43467;50.890;5.982;2023-03-03T01:14:38;100849.25;;;5.19;64.22
36234;BME280;43467;50.890;5.982;2023-03-03T01:17:04;100843.13;;;5.21;63.68
36234;BME280;43467;50.890;5.982;2023-03-03T01:19:30;100841.25;;;5.28;63.23
36234;BME280;43467;50.890;5.982;2023-03-03T01:21:56;100835.19;;;5.26;63.37
36234;BME280;43467;50.890;5.982;2023-03-03T01:24:21;100843.88;;;5.28;63.56
36234;BME280;43467;50.890;5.982;2023-03-03T01:26:47;100838.63;;;5.28;63.36
36234;BME280;43467;50.890;5.982;2023-03-03T01:29:12;100843.84;;;5.31;63.82
36234;BME280;43467;50.890;5.982;2023-03-03T01:31:38;100844.69;;;5.33;63.68
36234;BME280;43467;50.890;5.982;2023-03-03T01:34:04;100844.00;;;5.22;64.31
36234;BME280;43467;50.890;5.982;2023-03-03T01:36:31;100844.06;;;5.15;63.99
36234;BME280;43467;50.890;5.982;2023-03-03T01:38:58;100850.25;;;5.11;64.70
36234;BME280;43467;50.890;5.982;2023-03-03T01:41:28;100841.44;;;5.15;64.96
36234;BME280;43467;50.890;5.982;2023-03-03T01:43:54;100845.81;;;5.17;64.66
36234;BME280;43467;50.890;5.982;2023-03-03T01:48:49;100846.63;;;5.20;64.62
36234;BME280;43467;50.890;5.982;2023-03-03T01:51:23;100851.00;;;5.20;64.50
36234;BME280;43467;50.890;5.982;2023-03-03T01:54:03;100852.72;;;5.22;64.52
36234;BME280;43467;50.890;5.982;2023-03-03T01:56:29;100856.19;;;5.24;64.92
36234;BME280;43467;50.890;5.982;2023-03-03T01:59:04;100849.31;;;5.15;64.86
36234;BME280;43467;50.890;5.982;2023-03-03T02:01:31;100858.22;;;5.02;65.88
36234;BME280;43467;50.890;5.982;2023-03-03T02:03:58;100853.09;;;4.96;66.20
36234;BME280;43467;50.890;5.982;2023-03-03T02:06:27;100861.78;;;4.98;65.81
36234;BME280;43467;50.890;5.982;2023-03-03T02:12:01;100857.50;;;4.93;66.03
36234;BME280;43467;50.890;5.982;2023-03-03T02:14:27;100855.00;;;4.82;66.97
36234;BME280;43467;50.890;5.982;2023-03-03T02:16:53;100832.41;;;4.71;66.96
36234;BME280;43467;50.890;5.982;2023-03-03T02:20:00;100853.25;;;4.81;67.13
36234;BME280;43467;50.890;5.982;2023-03-03T02:22:43;100857.56;;;4.88;67.17
36234;BME280;43467;50.890;5.982;2023-03-03T02:25:16;100853.25;;;4.81;67.08
36234;BME280;43467;50.890;5.982;2023-03-03T02:27:43;100861.91;;;4.89;66.79
36234;BME280;43467;50.890;5.982;2023-03-03T02:30:13;100845.47;;;4.74;66.99
36234;BME280;43467;50.890;5.982;2023-03-03T02:32:39;100861.94;;;4.86;66.51
36234;BME280;43467;50.890;5.982;2023-03-03T02:37:49;100871.09;;;4.52;67.61
36234;BME280;43467;50.890;5.982;2023-03-03T02:40:17;100870.28;;;4.45;67.98
36234;BME280;43467;50.890;5.982;2023-03-03T02:42:46;100863.34;;;4.41;68.55
36234;BME280;43467;50.890;5.982;2023-03-03T02:45:12;100871.28;;;4.32;68.87
36234;BME280;43467;50.890;5.982;2023-03-03T02:47:38;100867.69;;;4.44;68.59
36234;BME280;43467;50.890;5.982;2023-03-03T02:50:03;100870.38;;;4.36;68.91
36234;BME280;43467;50.890;5.982;2023-03-03T02:52:29;100876.47;;;4.40;68.55
36234;BME280;43467;50.890;5.982;2023-03-03T02:54:54;100876.38;;;4.49;68.30
36234;BME280;43467;50.890;5.982;2023-03-03T02:57:20;100877.31;;;4.42;68.60
36234;BME280;43467;50.890;5.982;2023-03-03T02:59:45;100874.75;;;4.39;68.47
36234;BME280;43467;50.890;5.982;2023-03-03T03:02:11;100880.81;;;4.44;68.56
36234;BME280;43467;50.890;5.982;2023-03-03T03:04:36;100875.53;;;4.47;68.73
36234;BME280;43467;50.890;5.982;2023-03-03T03:07:01;100882.56;;;4.42;68.51
36234;BME280;43467;50.890;5.982;2023-03-03T03:09:27;100872.09;;;4.40;68.73
36234;BME280;43467;50.890;5.982;2023-03-03T03:11:53;100871.13;;;4.49;68.51
36234;BME280;43467;50.890;5.982;2023-03-03T03:14:18;100880.69;;;4.54;68.17
36234;BME280;43467;50.890;5.982;2023-03-03T03:16:44;100879.84;;;4.51;68.30
36234;BME280;43467;50.890;5.982;2023-03-03T03:19:09;100881.75;;;4.37;68.55
36234;BME280;43467;50.890;5.982;2023-03-03T03:21:35;100798.31;;;3.94;68.86
36234;BME280;43467;50.890;5.982;2023-03-03T03:24:00;100879.16;;;4.34;68.99
36234;BME280;43467;50.890;5.982;2023-03-03T03:26:26;100880.03;;;4.36;69.38
36234;BME280;43467;50.890;5.982;2023-03-03T03:28:52;100879.19;;;4.31;69.20
36234;BME280;43467;50.890;5.982;2023-03-03T03:31:19;100875.69;;;4.29;69.14
36234;BME280;43467;50.890;5.982;2023-03-03T03:33:44;100875.69;;;4.32;69.34
36234;BME280;43467;50.890;5.982;2023-03-03T03:36:10;100881.81;;;4.31;69.37
36234;BME280;43467;50.890;5.982;2023-03-03T03:38:36;100882.66;;;4.34;69.47
36234;BME280;43467;50.890;5.982;2023-03-03T03:41:04;100886.97;;;4.40;69.40
36234;BME280;43467;50.890;5.982;2023-03-03T03:43:29;100890.34;;;4.51;69.10
36234;BME280;43467;50.890;5.982;2023-03-03T03:45:55;100891.19;;;4.54;68.64
36234;BME280;43467;50.890;5.982;2023-03-03T03:48:20;100884.19;;;4.53;68.55
36234;BME280;43467;50.890;5.982;2023-03-03T03:50:47;100891.22;;;4.48;68.67
36234;BME280;43467;50.890;5.982;2023-03-03T03:53:12;100888.63;;;4.45;68.91
36234;BME280;43467;50.890;5.982;2023-03-03T03:55:38;100890.44;;;4.40;69.10
36234;BME280;43467;50.890;5.982;2023-03-03T03:58:03;100890.47;;;4.39;69.25
36234;BME280;43467;50.890;5.982;2023-03-03T04:00:29;100894.81;;;4.43;69.46
36234;BME280;43467;50.890;5.982;2023-03-03T04:02:55;100898.34;;;4.37;68.91
36234;BME280;43467;50.890;5.982;2023-03-03T04:05:20;100887.97;;;4.27;69.55
36234;BME280;43467;50.890;5.982;2023-03-03T04:07:46;100897.63;;;4.21;69.72
36234;BME280;43467;50.890;5.982;2023-03-03T04:10:11;100890.66;;;4.19;70.03
36234;BME280;43467;50.890;5.982;2023-03-03T04:12:36;100897.66;;;4.18;69.94
36234;BME280;43467;50.890;5.982;2023-03-03T04:15:10;100894.13;;;4.21;69.98
36234;BME280;43467;50.890;5.982;2023-03-03T04:17:36;100890.66;;;4.17;70.27
36234;BME280;43467;50.890;5.982;2023-03-03T04:20:02;100892.34;;;4.25;70.22
36234;BME280;43467;50.890;5.982;2023-03-03T04:22:28;100901.03;;;4.30;69.74
36234;BME280;43467;50.890;5.982;2023-03-03T04:25:02;100895.75;;;4.34;70.43
36234;BME280;43467;50.890;5.982;2023-03-03T04:27:33;100902.72;;;4.37;70.18
36234;BME280;43467;50.890;5.982;2023-03-03T04:29:59;100906.25;;;4.33;70.19
36234;BME280;43467;50.890;5.982;2023-03-03T04:32:24;100902.81;;;4.25;70.25
36234;BME280;43467;50.890;5.982;2023-03-03T04:34:49;100907.22;;;4.21;70.73
36234;BME280;43467;50.890;5.982;2023-03-03T04:37:15;100903.78;;;4.19;70.65
36234;BME280;43467;50.890;5.982;2023-03-03T04:39:40;100908.13;;;4.18;70.79
36234;BME280;43467;50.890;5.982;2023-03-03T04:42:06;100908.06;;;4.25;70.15
36234;BME280;43467;50.890;5.982;2023-03-03T04:44:31;100906.31;;;4.25;70.11
36234;BME280;43467;50.890;5.982;2023-03-03T04:46:56;100914.25;;;4.16;70.67
36234;BME280;43467;50.890;5.982;2023-03-03T04:49:22;100903.75;;;4.22;70.41
36234;BME280;43467;50.890;5.982;2023-03-03T04:51:47;100915.94;;;4.25;70.48
36234;BME280;43467;50.890;5.982;2023-03-03T04:54:12;100911.53;;;4.30;70.33
36234;BME280;43467;50.890;5.982;2023-03-03T04:56:38;100914.22;;;4.24;70.17
36234;BME280;43467;50.890;5.982;2023-03-03T04:59:03;100917.72;;;4.22;70.55
36234;BME280;43467;50.890;5.982;2023-03-03T05:01:29;100918.56;;;4.26;70.55
36234;BME280;43467;50.890;5.982;2023-03-03T05:03:54;100920.38;;;4.16;70.59
36234;BME280;43467;50.890;5.982;2023-03-03T05:06:19;100920.41;;;4.15;70.60
36234;BME280;43467;50.890;5.982;2023-03-03T05:08:45;100918.78;;;3.99;71.04
36234;BME280;43467;50.890;5.982;2023-03-03T05:11:11;100923.22;;;3.91;71.67
36234;BME280;43467;50.890;5.982;2023-03-03T05:13:36;100928.38;;;4.03;71.17
36234;BME280;43467;50.890;5.982;2023-03-03T05:16:02;100917.06;;;3.99;70.68
36234;BME280;43467;50.890;5.982;2023-03-03T05:18:27;100923.91;;;4.12;70.82
36234;BME280;43467;50.890;5.982;2023-03-03T05:20:54;100924.81;;;4.08;70.82
36234;BME280;43467;50.890;5.982;2023-03-03T05:23:20;100931.75;;;4.15;70.94
36234;BME280;43467;50.890;5.982;2023-03-03T05:25:46;100934.38;;;4.15;70.48
36234;BME280;43467;50.890;5.982;2023-03-03T05:28:12;100930.00;;;4.14;70.93
36234;BME280;43467;50.890;5.982;2023-03-03T05:30:37;100926.50;;;4.17;70.50
36234;BME280;43467;50.890;5.982;2023-03-03T05:33:04;100919.53;;;4.14;70.32
36234;BME280;43467;50.890;5.982;2023-03-03T05:35:31;100932.59;;;4.17;70.83
36234;BME280;43467;50.890;5.982;2023-03-03T05:37:56;100942.25;;;4.12;70.45
36234;BME280;43467;50.890;5.982;2023-03-03T05:40:23;100937.91;;;4.08;70.69
36234;BME280;43467;50.890;5.982;2023-03-03T05:42:49;100938.84;;;4.03;70.55
36234;BME280;43467;50.890;5.982;2023-03-03T05:45:14;100928.44;;;3.95;71.43
36234;BME280;43467;50.890;5.982;2023-03-03T05:47:40;100938.88;;;3.97;71.07
36234;BME280;43467;50.890;5.982;2023-03-03T05:50:06;100924.91;;;3.96;70.99
36234;BME280;43467;50.890;5.982;2023-03-03T05:52:31;100933.66;;;3.97;71.24
36234;BME280;43467;50.890;5.982;2023-03-03T05:54:56;100944.13;;;3.97;70.89
36234;BME280;43467;50.890;5.982;2023-03-03T05:57:22;100940.63;;;3.99;71.00
36234;BME280;43467;50.890;5.982;2023-03-03T05:59:47;100943.22;;;4.01;71.16
36234;BME280;43467;50.890;5.982;2023-03-03T06:02:13;100935.38;;;3.98;71.19
36234;BME280;43467;50.890;5.982;2023-03-03T06:04:38;100928.38;;;4.00;71.05
36234;BME280;43467;50.890;5.982;2023-03-03T06:07:04;100941.47;;;4.03;70.80
36234;BME280;43467;50.890;5.982;2023-03-03T06:09:29;100941.41;;;4.10;70.60
36234;BME280;43467;50.890;5.982;2023-03-03T06:11:55;100942.28;;;4.11;70.50
36234;BME280;43467;50.890;5.982;2023-03-03T06:14:21;100947.53;;;4.11;71.17
36234;BME280;43467;50.890;5.982;2023-03-03T06:16:47;100939.78;;;3.93;70.82
36234;BME280;43467;50.890;5.982;2023-03-03T06:19:13;100957.09;;;4.15;70.98
36234;BME280;43467;50.890;5.982;2023-03-03T06:21:38;100951.84;;;4.15;70.59
36234;BME280;43467;50.890;5.982;2023-03-03T06:24:04;100951.81;;;4.19;70.15
36234;BME280;43467;50.890;5.982;2023-03-03T06:26:31;100950.09;;;4.12;70.64
36234;BME280;43467;50.890;5.982;2023-03-03T06:28:57;100950.91;;;4.20;70.78
36234;BME280;43467;50.890;5.982;2023-03-03T06:31:22;100958.81;;;4.17;70.43
36234;BME280;43467;50.890;5.982;2023-03-03T06:33:48;100957.06;;;4.16;70.40
36234;BME280;43467;50.890;5.982;2023-03-03T06:36:13;100962.28;;;4.22;70.09
36234;BME280;43467;50.890;5.982;2023-03-03T06:38:39;100964.84;;;4.26;70.03
36234;BME280;43467;50.890;5.982;2023-03-03T06:41:04;100966.59;;;4.27;69.64
36234;BME280;43467;50.890;5.982;2023-03-03T06:43:32;100969.19;;;4.30;69.68
36234;BME280;43467;50.890;5.982;2023-03-03T06:45:58;100962.31;;;4.18;69.85
36234;BME280;43467;50.890;5.982;2023-03-03T06:48:23;100961.47;;;4.13;69.83
36234;BME280;43467;50.890;5.982;2023-03-03T06:50:49;100952.88;;;3.94;70.34
36234;BME280;43467;50.890;5.982;2023-03-03T06:53:16;100971.94;;;4.14;69.66
36234;BME280;43467;50.890;5.982;2023-03-03T06:55:42;100979.75;;;4.24;69.58
36234;BME280;43467;50.890;5.982;2023-03-03T06:58:16;100980.72;;;4.10;69.86
36234;BME280;43467;50.890;5.982;2023-03-03T07:00:45;100980.72;;;4.09;69.68
36234;BME280;43467;50.890;5.982;2023-03-03T07:03:17;100983.38;;;4.03;70.12
36234;BME280;43467;50.890;5.982;2023-03-03T07:05:43;100999.22;;;3.83;70.85
36234;BME280;43467;50.890;5.982;2023-03-03T07:08:16;100996.56;;;3.88;71.08
36234;BME280;43467;50.890;5.982;2023-03-03T07:10:43;101009.63;;;3.98;70.65
36234;BME280;43467;50.890;5.982;2023-03-03T07:15:46;101000.94;;;3.90;70.25
36234;BME280;43467;50.890;5.982;2023-03-03T07:18:40;101011.38;;;3.96;70.34
36234;BME280;43467;50.890;5.982;2023-03-03T07:23:45;101025.47;;;3.77;71.06
36234;BME280;43467;50.890;5.982;2023-03-03T07:26:13;101022.78;;;3.83;71.27
36234;BME280;43467;50.890;5.982;2023-03-03T07:28:44;101021.91;;;3.87;70.96
36234;BME280;43467;50.890;5.982;2023-03-03T07:31:35;101024.53;;;3.86;70.82
36234;BME280;43467;50.890;5.982;2023-03-03T07:34:13;101035.84;;;3.95;70.67
36234;BME280;43467;50.890;5.982;2023-03-03T07:36:42;101035.00;;;3.87;70.96
36234;BME280;43467;50.890;5.982;2023-03-03T07:41:55;101043.66;;;4.00;70.34
36234;BME280;43467;50.890;5.982;2023-03-03T07:44:30;101045.38;;;4.07;70.66
36234;BME280;43467;50.890;5.982;2023-03-03T07:46:58;101050.69;;;3.93;70.94
36234;BME280;43467;50.890;5.982;2023-03-03T07:49:36;101063.75;;;4.01;70.17
36234;BME280;43467;50.890;5.982;2023-03-03T07:54:48;101059.38;;;4.00;70.05
36234;BME280;43467;50.890;5.982;2023-03-03T07:57:21;101067.28;;;3.92;70.03
36234;BME280;43467;50.890;5.982;2023-03-03T07:59:52;101055.94;;;3.92;70.41
36234;BME280;43467;50.890;5.982;2023-03-03T08:02:32;101064.69;;;3.88;70.27
36234;BME280;43467;50.890;5.982;2023-03-03T08:04:59;101075.19;;;3.80;70.37
36234;BME280;43467;50.890;5.982;2023-03-03T08:07:24;101066.50;;;3.77;70.63
36234;BME280;43467;50.890;5.982;2023-03-03T08:09:59;101071.72;;;3.75;70.44
36234;BME280;43467;50.890;5.982;2023-03-03T08:12:41;101068.19;;;3.85;70.33
36234;BME280;43467;50.890;5.982;2023-03-03T08:15:27;101069.91;;;3.88;69.98
36234;BME280;43467;50.890;5.982;2023-03-03T08:17:55;101069.00;;;3.99;70.40
36234;BME280;43467;50.890;5.982;2023-03-03T08:23:09;101077.66;;;4.13;69.75
36234;BME280;43467;50.890;5.982;2023-03-03T08:25:34;101076.72;;;4.20;69.52
36234;BME280;43467;50.890;5.982;2023-03-03T08:27:59;101085.41;;;4.29;68.99
36234;BME280;43467;50.890;5.982;2023-03-03T08:30:25;101076.72;;;4.24;69.13
36234;BME280;43467;50.890;5.982;2023-03-03T08:32:50;101088.03;;;4.32;68.68
36234;BME280;43467;50.890;5.982;2023-03-03T08:35:15;101085.50;;;4.19;69.43
36234;BME280;43467;50.890;5.982;2023-03-03T08:37:41;101091.53;;;4.25;68.81
36234;BME280;43467;50.890;5.982;2023-03-03T08:40:07;101095.97;;;4.18;68.74
36234;BME280;43467;50.890;5.982;2023-03-03T08:42:32;101104.66;;;4.20;68.63
36234;BME280;43467;50.890;5.982;2023-03-03T08:44:58;101104.72;;;4.14;68.67
36234;BME280;43467;50.890;5.982;2023-03-03T08:47:23;101088.94;;;4.20;68.18
36234;BME280;43467;50.890;5.982;2023-03-03T08:49:49;101097.72;;;4.17;68.85
36234;BME280;43467;50.890;5.982;2023-03-03T08:52:14;101086.41;;;4.11;68.48
36234;BME280;43467;50.890;5.982;2023-03-03T08:54:39;101095.97;;;4.18;68.11
36234;BME280;43467;50.890;5.982;2023-03-03T08:57:05;101110.88;;;4.10;68.72
36234;BME280;43467;50.890;5.982;2023-03-03T08:59:30;101107.34;;;4.12;68.53
36234;BME280;43467;50.890;5.982;2023-03-03T09:02:01;101098.59;;;4.16;68.65
36234;BME280;43467;50.890;5.982;2023-03-03T09:04:27;101117.94;;;3.94;69.11
36234;BME280;43467;50.890;5.982;2023-03-03T09:06:52;101114.38;;;4.00;69.32
36234;BME280;43467;50.890;5.982;2023-03-03T09:09:18;101123.09;;;4.05;69.04
36234;BME280;43467;50.890;5.982;2023-03-03T09:11:43;101126.56;;;4.14;69.37
36234;BME280;43467;50.890;5.982;2023-03-03T09:14:14;101123.91;;;4.19;68.99
36234;BME280;43467;50.890;5.982;2023-03-03T09:16:51;101129.22;;;4.10;68.78
36234;BME280;43467;50.890;5.982;2023-03-03T09:19:25;101137.91;;;4.19;68.20
36234;BME280;43467;50.890;5.982;2023-03-03T09:21:52;101144.88;;;4.22;67.78
36234;BME280;43467;50.890;5.982;2023-03-03T09:26:51;101137.91;;;4.12;67.97
36234;BME280;43467;50.890;5.982;2023-03-03T09:29:43;101137.84;;;4.30;67.68
36234;BME280;43467;50.890;5.982;2023-03-03T09:32:38;101143.91;;;4.38;67.07
36234;BME280;43467;50.890;5.982;2023-03-03T09:37:51;101139.56;;;4.33;66.66
36234;BME280;43467;50.890;5.982;2023-03-03T09:43:25;101139.59;;;4.31;67.09
36234;BME280;43467;50.890;5.982;2023-03-03T09:54:40;101136.84;;;4.45;66.59
36234;BME280;43467;50.890;5.982;2023-03-03T09:57:15;101135.13;;;4.44;66.51
36234;BME280;43467;50.890;5.982;2023-03-03T10:02:30;101142.09;;;4.48;67.17
36234;BME280;43467;50.890;5.982;2023-03-03T10:08:20;101154.38;;;4.43;67.48
36234;BME280;43467;50.890;5.982;2023-03-03T10:11:10;101138.53;;;4.59;66.98
36234;BME280;43467;50.890;5.982;2023-03-03T10:21:50;101152.31;;;4.86;65.31
36234;BME280;43467;50.890;5.982;2023-03-03T10:24:30;101156.69;;;4.82;65.76
36234;BME280;43467;50.890;5.982;2023-03-03T10:27:22;101155.94;;;4.68;66.18
36234;BME280;43467;50.890;5.982;2023-03-03T10:32:46;101166.44;;;4.68;65.92
36234;BME280;43467;50.890;5.982;2023-03-03T10:40:46;101169.78;;;4.87;65.17
36234;BME280;43467;50.890;5.982;2023-03-03T10:49:21;101159.25;;;4.91;64.13
36234;BME280;43467;50.890;5.982;2023-03-03T10:52:10;101163.59;;;4.94;64.85
36234;BME280;43467;50.890;5.982;2023-03-03T10:55:04;101163.59;;;4.97;64.02
36234;BME280;43467;50.890;5.982;2023-03-03T11:01:03;101161.00;;;4.91;64.08
36234;BME280;43467;50.890;5.982;2023-03-03T11:03:54;101160.91;;;5.03;63.83
36234;BME280;43467;50.890;5.982;2023-03-03T11:09:07;101157.38;;;5.05;64.01
36234;BME280;43467;50.890;5.982;2023-03-03T11:11:44;101161.78;;;5.05;63.84
36234;BME280;43467;50.890;5.982;2023-03-03T11:25:00;101158.19;;;5.17;62.89
36234;BME280;43467;50.890;5.982;2023-03-03T11:33:11;101175.59;;;5.25;62.89
36234;BME280;43467;50.890;5.982;2023-03-03T11:35:44;101164.19;;;5.29;62.75
36234;BME280;43467;50.890;5.982;2023-03-03T11:38:47;101168.44;;;5.41;62.50
36234;BME280;43467;50.890;5.982;2023-03-03T11:44:21;101165.06;;;5.30;62.72
36234;BME280;43467;50.890;5.982;2023-03-03T11:49:19;101169.38;;;5.37;62.75
36234;BME280;43467;50.890;5.982;2023-03-03T11:51:49;101162.28;;;5.43;62.74
36234;BME280;43467;50.890;5.982;2023-03-03T11:54:49;101160.41;;;5.56;62.54
36234;BME280;43467;50.890;5.982;2023-03-03T11:57:23;101163.13;;;5.47;62.28
36234;BME280;43467;50.890;5.982;2023-03-03T11:59:58;101151.75;;;5.48;62.35
36234;BME280;43467;50.890;5.982;2023-03-03T12:02:50;101156.06;;;5.50;62.00
36234;BME280;43467;50.890;5.982;2023-03-03T12:08:27;101161.44;;;5.41;61.90
36234;BME280;43467;50.890;5.982;2023-03-03T12:13:59;101156.25;;;5.37;61.56
36234;BME280;43467;50.890;5.982;2023-03-03T12:17:10;101158.00;;;5.35;61.62
36234;BME280;43467;50.890;5.982;2023-03-03T12:25:25;101149.03;;;5.57;61.95
36234;BME280;43467;50.890;5.982;2023-03-03T12:27:55;101138.44;;;5.66;61.14
36234;BME280;43467;50.890;5.982;2023-03-03T12:30:38;101140.09;;;5.73;60.84
36234;BME280;43467;50.890;5.982;2023-03-03T12:36:07;101138.25;;;5.80;60.74
36234;BME280;43467;50.890;5.982;2023-03-03T12:38:44;101140.03;;;5.76;60.99
36234;BME280;43467;50.890;5.982;2023-03-03T12:41:23;101133.84;;;5.86;60.98
36234;BME280;43467;50.890;5.982;2023-03-03T12:44:13;101143.44;;;5.86;60.80
36234;BME280;43467;50.890;5.982;2023-03-03T12:49:19;101126.81;;;5.85;60.83
36234;BME280;43467;50.890;5.982;2023-03-03T12:54:28;101125.09;;;5.83;60.82
36234;BME280;43467;50.890;5.982;2023-03-03T13:02:30;101125.91;;;5.88;61.09
36234;BME280;43467;50.890;5.982;2023-03-03T13:05:38;101126.69;;;5.97;60.71
36234;BME280;43467;50.890;5.982;2023-03-03T13:08:20;101119.56;;;6.05;60.11
36234;BME280;43467;50.890;5.982;2023-03-03T13:11:20;101121.31;;;6.06;60.32
36234;BME280;43467;50.890;5.982;2023-03-03T13:19:27;101111.56;;;6.13;60.28
36234;BME280;43467;50.890;5.982;2023-03-03T13:22:08;101110.56;;;6.22;59.93
36234;BME280;43467;50.890;5.982;2023-03-03T13:27:47;101114.31;;;6.05;59.85
36234;BME280;43467;50.890;5.982;2023-03-03T13:30:16;101111.66;;;6.07;60.66
36234;BME280;43467;50.890;5.982;2023-03-03T13:32:52;101118.69;;;6.06;60.55
36234;BME280;43467;50.890;5.982;2023-03-03T13:38:31;101120.66;;;5.85;61.02
36234;BME280;43467;50.890;5.982;2023-03-03T13:41:06;101110.19;;;5.86;60.47
36234;BME280;43467;50.890;5.982;2023-03-03T13:43:42;101108.34;;;5.94;60.33
36234;BME280;43467;50.890;5.982;2023-03-03T13:46:31;101117.78;;;6.07;60.47
36234;BME280;43467;50.890;5.982;2023-03-03T13:52:14;101114.19;;;6.15;59.82
36234;BME280;43467;50.890;5.982;2023-03-03T13:55:20;101109.06;;;6.05;60.00
36234;BME280;43467;50.890;5.982;2023-03-03T14:00:46;101096.72;;;6.11;59.94
36234;BME280;43467;50.890;5.982;2023-03-03T14:06:27;101103.44;;;6.30;59.27
36234;BME280;43467;50.890;5.982;2023-03-03T14:12:45;101104.56;;;6.15;60.13
36234;BME280;43467;50.890;5.982;2023-03-03T14:14:44;101093.94;;;6.21;59.70
36234;BME280;43467;50.890;5.982;2023-03-03T14:17:14;101101.75;;;6.24;60.02
36234;BME280;43467;50.890;5.982;2023-03-03T14:19:45;101101.75;;;6.26;59.34
36234;BME280;43467;50.890;5.982;2023-03-03T14:22:25;101103.56;;;6.21;59.48
36234;BME280;43467;50.890;5.982;2023-03-03T14:25:05;101100.06;;;6.22;59.63
36234;BME280;43467;50.890;5.982;2023-03-03T14:35:34;101095.25;;;6.51;59.39
36234;BME280;43467;50.890;5.982;2023-03-03T14:38:01;101090.38;;;6.24;59.30
36234;BME280;43467;50.890;5.982;2023-03-03T14:40:32;101086.91;;;6.22;59.54
36234;BME280;43467;50.890;5.982;2023-03-03T14:43:00;101087.84;;;6.18;59.64
36234;BME280;43467;50.890;5.982;2023-03-03T14:45:33;101079.00;;;6.23;59.52
36234;BME280;43467;50.890;5.982;2023-03-03T14:48:26;101077.09;;;6.33;59.88
36234;BME280;43467;50.890;5.982;2023-03-03T14:50:58;101088.38;;;6.42;59.52
36234;BME280;43467;50.890;5.982;2023-03-03T14:53:41;101092.63;;;6.51;59.35
36234;BME280;43467;50.890;5.982;2023-03-03T14:56:15;101088.13;;;6.58;59.52
36234;BME280;43467;50.890;5.982;2023-03-03T14:58:41;101090.81;;;6.54;59.38
36234;BME280;43467;50.890;5.982;2023-03-03T15:04:03;101091.88;;;6.43;59.14
36234;BME280;43467;50.890;5.982;2023-03-03T15:06:40;101079.78;;;6.30;59.25
36234;BME280;43467;50.890;5.982;2023-03-03T15:11:52;101085.75;;;6.41;59.82
36234;BME280;43467;50.890;5.982;2023-03-03T15:14:20;101073.41;;;6.46;59.93
36234;BME280;43467;50.890;5.982;2023-03-03T15:16:47;101074.16;;;6.52;59.90
36234;BME280;43467;50.890;5.982;2023-03-03T15:22:58;101072.31;;;6.59;58.96
36234;BME280;43467;50.890;5.982;2023-03-03T15:25:12;101071.38;;;6.63;59.01
36234;BME280;43467;50.890;5.982;2023-03-03T15:27:48;101059.16;;;6.59;59.75
36234;BME280;43467;50.890;5.982;2023-03-03T15:32:59;101064.22;;;6.71;59.00
36234;BME280;43467;50.890;5.982;2023-03-03T15:36:06;101063.97;;;6.85;58.73
36234;BME280;43467;50.890;5.982;2023-03-03T15:38:54;101063.75;;;6.98;58.04
36234;BME280;43467;50.890;5.982;2023-03-03T16:03:43;101063.63;;;6.56;59.33
36234;BME280;43467;50.890;5.982;2023-03-03T16:06:27;101058.34;;;6.56;59.79
36234;BME280;43467;50.890;5.982;2023-03-03T16:09:02;101054.78;;;6.57;59.35
36234;BME280;43467;50.890;5.982;2023-03-03T16:27:29;101062.00;;;6.47;60.46
36234;BME280;43467;50.890;5.982;2023-03-03T16:33:21;101063.53;;;6.60;60.01
36234;BME280;43467;50.890;5.982;2023-03-03T16:35:58;101059.19;;;6.58;60.00
36234;BME280;43467;50.890;5.982;2023-03-03T16:41:20;101048.72;;;6.54;60.39
36234;BME280;43467;50.890;5.982;2023-03-03T16:46:40;101064.44;;;6.58;59.89
36234;BME280;43467;50.890;5.982;2023-03-03T16:57:32;101071.31;;;6.66;59.71
36234;BME280;43467;50.890;5.982;2023-03-03T17:00:20;101078.31;;;6.67;59.72
36234;BME280;43467;50.890;5.982;2023-03-03T17:05:15;101074.06;;;6.60;59.83
36234;BME280;43467;50.890;5.982;2023-03-03T17:14:48;101075.97;;;6.50;60.21